Time;durP1;ratioP1;P1;durP2;ratioP2;P2;SDS_P1;SDS_P2;PMS_P1;PMS_P2;Temp;Humidity;BMP_temperature;BMP_pressure;BME280_temperature;BME280_humidity;BME280_pressure;Samples;Min_cycle;Max_cycle;Signal;HPM_P1;HPM_P2
2022/05/29 00:00:53;;;;;;;14.25;3.58;;;;;;;;;;5069452;28;20049;-74
2022/05/29 00:03:19;;;;;;;13.68;3.28;;;;;;;;;;5068726;28;20695;-74
2022/05/29 00:05:46;;;;;;;10.68;3.35;;;;;;;;;;5070116;28;20037;-74
2022/05/29 00:08:21;;;;;;;11.98;3.22;;;;;;;;;;5074555;28;20044;-74
2022/05/29 00:10:47;;;;;;;12.70;3.83;;;;;;;;;;5067972;28;21698;-74
2022/05/29 00:13:13;;;;;;;11.85;3.38;;;;;;;;;;5058058;28;20135;-74
2022/05/29 00:15:39;;;;;;;13.38;3.67;;;;;;;;;;5071051;28;20049;-74
2022/05/29 00:18:07;;;;;;;15.32;3.67;;;;;;;;;;5069785;28;20116;-74
2022/05/29 00:20:33;;;;;;;13.32;4.05;;;;;;;;;;5070919;28;20115;-74
2022/05/29 00:22:59;;;;;;;11.82;3.65;;;;;;;;;;5064088;28;20051;-74
2022/05/29 00:25:25;;;;;;;14.30;3.50;;;;;;;;;;5065898;28;20517;-74
2022/05/29 00:27:51;;;;;;;12.88;3.50;;;;;;;;;;5064929;28;20037;-73
2022/05/29 00:30:17;;;;;;;13.10;3.30;;;;;;;;;;5068207;28;20044;-74
2022/05/29 00:32:43;;;;;;;15.18;3.83;;;;;;;;;;5057969;28;20131;-74
2022/05/29 00:35:09;;;;;;;17.95;3.85;;;;;;;;;;5072026;28;20049;-73
2022/05/29 00:37:36;;;;;;;13.10;3.83;;;;;;;;;;5059166;28;20041;-74
2022/05/29 00:40:12;;;;;;;14.55;3.97;;;;;;;;;;5071270;28;20036;-74
2022/05/29 00:42:38;;;;;;;16.08;4.43;;;;;;;;;;5055574;28;20056;-74
2022/05/29 00:45:06;;;;;;;17.55;4.10;;;;;;;;;;5068142;28;20545;-74
2022/05/29 00:47:32;;;;;;;15.30;3.90;;;;;;;;;;5066867;28;20479;-75
2022/05/29 00:49:59;;;;;;;15.07;4.38;;;;;;;;;;5057303;28;20036;-74
2022/05/29 00:52:28;;;;;;;15.70;4.10;;;;;;;;;;5060083;28;20036;-73
2022/05/29 00:55:01;;;;;;;14.40;4.03;;;;;;;;;;5062043;28;20060;-74
2022/05/29 00:57:29;;;;;;;12.50;3.95;;;;;;;;;;5063009;28;20040;-74
2022/05/29 01:00:04;;;;;;;13.68;4.18;;;;;;;;;;5069112;28;20037;-73
2022/05/29 01:02:30;;;;;;;19.23;4.40;;;;;;;;;;5056248;28;20045;-73
2022/05/29 01:04:56;;;;;;;13.18;4.05;;;;;;;;;;5065296;28;20055;-73
2022/05/29 01:07:22;;;;;;;13.80;3.70;;;;;;;;;;5068830;28;20040;-74
2022/05/29 01:09:49;;;;;;;15.30;4.15;;;;;;;;;;5067481;28;20045;-74
2022/05/29 01:12:15;;;;;;;14.85;4.10;;;;;;;;;;5057324;28;20128;-74
2022/05/29 01:14:51;;;;;;;14.73;4.13;;;;;;;;;;5070060;28;20124;-74
2022/05/29 01:17:21;;;;;;;14.73;3.78;;;;;;;;;;5070688;28;20048;-74
2022/05/29 01:19:54;;;;;;;12.35;3.60;;;;;;;;;;5078537;28;20050;-74
2022/05/29 01:22:31;;;;;;;13.40;4.07;;;;;;;;;;5065920;28;20072;-74
2022/05/29 01:25:15;;;;;;;15.73;4.10;;;;;;;;;;5069507;28;20475;-74
2022/05/29 01:27:53;;;;;;;19.77;4.00;;;;;;;;;;5065309;28;20037;-74
2022/05/29 01:30:23;;;;;;;15.38;3.90;;;;;;;;;;5064611;28;20128;-74
2022/05/29 01:33:13;;;;;;;14.50;3.87;;;;;;;;;;5063479;28;20156;-74
2022/05/29 01:35:47;;;;;;;17.80;4.38;;;;;;;;;;5064635;28;20044;-74
2022/05/29 01:38:35;;;;;;;13.93;3.90;;;;;;;;;;5060938;28;20079;-74
2022/05/29 01:41:06;;;;;;;13.65;3.90;;;;;;;;;;5055944;28;20052;-75
2022/05/29 01:43:41;;;;;;;18.52;3.97;;;;;;;;;;5068680;28;20048;-73
2022/05/29 01:46:13;;;;;;;15.80;4.00;;;;;;;;;;5058548;28;20044;-74
2022/05/29 01:48:39;;;;;;;18.08;3.95;;;;;;;;;;5070271;28;20498;-74
2022/05/29 01:51:13;;;;;;;16.58;3.47;;;;;;;;;;5070963;28;20089;-74
2022/05/29 01:53:41;;;;;;;12.60;3.38;;;;;;;;;;5053264;28;20133;-74
2022/05/29 01:56:27;;;;;;;15.30;3.78;;;;;;;;;;5069312;28;20037;-74
2022/05/29 01:59:02;;;;;;;20.88;3.75;;;;;;;;;;5060563;28;20452;-74
2022/05/29 02:01:31;;;;;;;19.02;3.90;;;;;;;;;;5056049;28;20045;-74
2022/05/29 02:03:58;;;;;;;15.20;4.05;;;;;;;;;;5068008;28;20094;-74
2022/05/29 02:06:26;;;;;;;13.48;3.92;;;;;;;;;;5070282;28;20037;-74
2022/05/29 02:09:04;;;;;;;12.23;3.90;;;;;;;;;;5062887;28;20041;-74
2022/05/29 02:11:31;;;;;;;18.58;3.97;;;;;;;;;;5056494;28;20113;-75
2022/05/29 02:14:04;;;;;;;19.73;4.70;;;;;;;;;;5068249;28;20068;-75
2022/05/29 02:16:40;;;;;;;13.00;3.88;;;;;;;;;;5064105;28;20053;-75
2022/05/29 02:19:10;;;;;;;13.82;4.00;;;;;;;;;;5072451;28;20123;-75
2022/05/29 02:21:42;;;;;;;14.38;4.05;;;;;;;;;;5067947;28;20394;-74
2022/05/29 02:24:11;;;;;;;11.52;3.50;;;;;;;;;;5068498;28;20044;-74
2022/05/29 02:26:41;;;;;;;16.05;4.43;;;;;;;;;;5064819;28;20449;-74
2022/05/29 02:29:11;;;;;;;14.68;4.10;;;;;;;;;;5070480;28;20048;-74
2022/05/29 02:31:43;;;;;;;17.05;3.95;;;;;;;;;;5075379;28;20040;-75
2022/05/29 02:34:28;;;;;;;18.73;4.13;;;;;;;;;;5073846;28;20052;-74
2022/05/29 02:36:59;;;;;;;16.70;3.75;;;;;;;;;;5060493;28;20044;-75
2022/05/29 02:39:28;;;;;;;16.05;4.18;;;;;;;;;;5068758;28;20558;-74
2022/05/29 02:41:54;;;;;;;15.45;4.07;;;;;;;;;;5072774;28;20071;-75
2022/05/29 02:44:40;;;;;;;15.93;3.97;;;;;;;;;;5072658;28;20052;-74
2022/05/29 02:47:21;;;;;;;11.15;3.85;;;;;;;;;;5072411;28;20040;-75
2022/05/29 02:50:08;;;;;;;15.38;3.92;;;;;;;;;;5057105;28;20044;-75
2022/05/29 02:52:34;;;;;;;14.40;3.63;;;;;;;;;;5055202;28;20041;-74
2022/05/29 02:55:00;;;;;;;16.25;4.07;;;;;;;;;;5055061;28;20510;-74
2022/05/29 02:57:26;;;;;;;16.30;3.65;;;;;;;;;;5056918;28;20135;-74
2022/05/29 02:59:54;;;;;;;16.83;4.07;;;;;;;;;;5062567;28;20089;-75
2022/05/29 03:02:36;;;;;;;16.75;3.63;;;;;;;;;;5068970;28;20052;-75
2022/05/29 03:05:14;;;;;;;12.98;3.70;;;;;;;;;;5074030;28;20033;-74
2022/05/29 03:07:58;;;;;;;12.77;4.07;;;;;;;;;;5061838;28;20498;-74
2022/05/29 03:10:31;;;;;;;15.80;3.92;;;;;;;;;;5053672;28;20097;-74
2022/05/29 03:12:57;;;;;;;13.48;3.75;;;;;;;;;;5069780;28;20049;-75
2022/05/29 03:15:59;;;;;;;17.88;4.30;;;;;;;;;;5063278;28;20044;-74
2022/05/29 03:18:40;;;;;;;16.92;4.40;;;;;;;;;;5027148;28;20037;-74
2022/05/29 03:21:18;;;;;;;17.55;4.15;;;;;;;;;;5027380;28;20574;-74
2022/05/29 03:23:55;;;;;;;15.45;4.70;;;;;;;;;;5026841;28;20045;-74
2022/05/29 03:26:29;;;;;;;17.08;3.85;;;;;;;;;;5030510;28;20098;-73
2022/05/29 03:28:59;;;;;;;16.13;4.60;;;;;;;;;;5021661;28;20072;-74
2022/05/29 03:31:28;;;;;;;14.73;4.63;;;;;;;;;;5025017;28;20053;-74
2022/05/29 03:33:54;;;;;;;17.92;4.38;;;;;;;;;;5033259;28;20056;-76
2022/05/29 03:36:20;;;;;;;19.38;4.60;;;;;;;;;;5009789;28;20042;-75
2022/05/29 03:38:46;;;;;;;15.45;4.35;;;;;;;;;;5037552;28;20046;-75
2022/05/29 03:41:14;;;;;;;15.05;4.35;;;;;;;;;;5012650;28;20054;-74
2022/05/29 03:43:42;;;;;;;16.20;4.60;;;;;;;;;;5024030;28;20088;-75
2022/05/29 03:46:07;;;;;;;15.70;4.68;;;;;;;;;;5024196;28;20479;-75
2022/05/29 03:48:34;;;;;;;19.27;4.70;;;;;;;;;;5026369;28;20124;-75
2022/05/29 03:51:04;;;;;;;18.63;4.55;;;;;;;;;;5031615;28;20042;-74
2022/05/29 03:53:29;;;;;;;17.13;4.38;;;;;;;;;;5057082;28;20055;-75
2022/05/29 03:55:55;;;;;;;21.92;4.50;;;;;;;;;;5069013;28;20041;-75
2022/05/29 03:58:21;;;;;;;16.58;4.30;;;;;;;;;;5065422;28;20053;-75
2022/05/29 04:00:47;;;;;;;17.70;4.32;;;;;;;;;;5068268;28;20040;-75
2022/05/29 04:03:13;;;;;;;16.90;4.47;;;;;;;;;;5070472;28;20033;-75
2022/05/29 04:05:39;;;;;;;19.50;5.13;;;;;;;;;;5065726;28;20253;-75
2022/05/29 04:13:41;;;;;;;15.48;4.43;;;;;;;;;;5067654;28;20045;-74
2022/05/29 04:16:07;;;;;;;15.52;4.13;;;;;;;;;;5054454;28;20456;-75
2022/05/29 04:18:33;;;;;;;14.52;4.00;;;;;;;;;;5080180;28;20051;-75
2022/05/29 04:20:59;;;;;;;16.23;3.78;;;;;;;;;;5065857;28;20040;-74
2022/05/29 04:23:25;;;;;;;16.50;4.07;;;;;;;;;;5060849;28;20120;-74
2022/05/29 04:25:51;;;;;;;14.02;4.10;;;;;;;;;;5053340;28;20049;-74
2022/05/29 04:28:18;;;;;;;19.20;4.53;;;;;;;;;;5063690;28;20037;-74
2022/05/29 04:30:44;;;;;;;12.60;3.70;;;;;;;;;;5053982;28;20411;-74
2022/05/29 04:33:10;;;;;;;17.65;4.03;;;;;;;;;;5065768;28;20095;-73
2022/05/29 04:35:44;;;;;;;12.57;3.45;;;;;;;;;;5073139;28;20477;-74
2022/05/29 04:38:10;;;;;;;14.15;3.85;;;;;;;;;;5061720;28;20618;-75
2022/05/29 04:40:40;;;;;;;13.75;3.45;;;;;;;;;;5095774;28;20064;-74
2022/05/29 04:43:06;;;;;;;16.75;3.50;;;;;;;;;;5060278;28;20375;-74
2022/05/29 04:45:33;;;;;;;16.67;3.53;;;;;;;;;;5072106;28;20094;-74
2022/05/29 04:47:59;;;;;;;15.68;3.38;;;;;;;;;;5060981;28;20040;-75
2022/05/29 04:50:25;;;;;;;13.80;3.40;;;;;;;;;;5063777;28;20431;-74
2022/05/29 04:52:51;;;;;;;17.95;3.35;;;;;;;;;;5068956;28;20044;-75
2022/05/29 04:55:17;;;;;;;16.10;3.40;;;;;;;;;;5066460;28;20447;-74
2022/05/29 04:57:43;;;;;;;13.65;3.35;;;;;;;;;;5067110;28;20055;-75
2022/05/29 05:00:10;;;;;;;12.45;3.22;;;;;;;;;;5070818;28;20044;-74
2022/05/29 05:02:36;;;;;;;13.13;2.88;;;;;;;;;;5070684;28;20040;-74
2022/05/29 05:05:02;;;;;;;16.80;3.55;;;;;;;;;;5055397;28;20051;-75
2022/05/29 05:07:28;;;;;;;17.45;3.45;;;;;;;;;;5062126;28;20051;-75
2022/05/29 05:09:54;;;;;;;20.23;3.50;;;;;;;;;;5071747;28;20076;-75
2022/05/29 05:12:20;;;;;;;12.65;3.65;;;;;;;;;;5061536;28;20435;-75
2022/05/29 05:14:46;;;;;;;10.88;3.53;;;;;;;;;;5052747;28;20043;-75
2022/05/29 05:17:12;;;;;;;14.73;3.13;;;;;;;;;;5058539;28;20075;-74
2022/05/29 05:19:38;;;;;;;14.35;3.33;;;;;;;;;;5056111;28;20120;-74
2022/05/29 05:22:08;;;;;;;14.85;3.15;;;;;;;;;;5058384;28;20086;-74
2022/05/29 05:24:35;;;;;;;17.20;3.70;;;;;;;;;;5070783;28;20138;-74
2022/05/29 05:27:01;;;;;;;14.95;2.65;;;;;;;;;;5066909;28;20045;-74
2022/05/29 05:29:27;;;;;;;16.58;3.60;;;;;;;;;;5052599;28;20152;-74
2022/05/29 05:31:53;;;;;;;15.70;2.75;;;;;;;;;;5057721;28;20045;-74
2022/05/29 05:34:19;;;;;;;14.00;2.88;;;;;;;;;;5066133;28;20037;-74
2022/05/29 05:36:45;;;;;;;11.63;2.65;;;;;;;;;;5068025;28;20044;-74
2022/05/29 05:39:11;;;;;;;14.35;3.05;;;;;;;;;;5061554;28;20179;-74
2022/05/29 05:41:37;;;;;;;14.25;2.92;;;;;;;;;;5069788;28;20060;-73
2022/05/29 05:44:04;;;;;;;12.45;2.50;;;;;;;;;;5077793;28;20052;-74
2022/05/29 05:46:30;;;;;;;15.02;3.20;;;;;;;;;;5082115;28;20084;-74
2022/05/29 05:48:57;;;;;;;12.60;2.90;;;;;;;;;;5067947;28;20080;-74
2022/05/29 05:51:23;;;;;;;15.20;2.80;;;;;;;;;;5069105;28;20052;-74
2022/05/29 05:53:49;;;;;;;14.25;2.80;;;;;;;;;;5067630;28;20080;-74
2022/05/29 05:56:17;;;;;;;15.70;3.08;;;;;;;;;;5071472;28;20380;-74
2022/05/29 05:58:44;;;;;;;17.35;2.88;;;;;;;;;;5071137;28;20048;-74
2022/05/29 06:01:13;;;;;;;15.50;2.50;;;;;;;;;;5062801;28;20380;-74
2022/05/29 06:03:39;;;;;;;13.80;2.95;;;;;;;;;;5064434;28;20052;-74
2022/05/29 06:06:06;;;;;;;13.48;2.78;;;;;;;;;;5081263;28;20038;-74
2022/05/29 06:08:32;;;;;;;14.02;2.85;;;;;;;;;;5070642;28;20402;-74
2022/05/29 06:10:58;;;;;;;13.75;2.53;;;;;;;;;;5052206;28;20533;-74
2022/05/29 06:13:24;;;;;;;14.25;3.05;;;;;;;;;;5066332;28;20060;-74
2022/05/29 06:15:50;;;;;;;16.50;2.50;;;;;;;;;;5061676;28;20049;-74
2022/05/29 06:18:17;;;;;;;14.48;2.70;;;;;;;;;;5044423;28;20106;-74
2022/05/29 06:20:45;;;;;;;14.00;2.78;;;;;;;;;;5050469;28;20060;-73
2022/05/29 06:23:12;;;;;;;11.68;2.55;;;;;;;;;;5059828;28;20052;-74
2022/05/29 06:25:41;;;;;;;17.15;2.92;;;;;;;;;;5063763;28;20040;-74
2022/05/29 06:28:08;;;;;;;13.35;2.67;;;;;;;;;;5055753;28;20448;-74
2022/05/29 06:30:35;;;;;;;18.27;2.90;;;;;;;;;;5060960;28;20045;-75
2022/05/29 06:33:01;;;;;;;16.65;3.38;;;;;;;;;;5062926;28;20048;-75
2022/05/29 06:35:28;;;;;;;16.35;2.88;;;;;;;;;;5056968;28;20091;-73
2022/05/29 06:37:54;;;;;;;12.40;3.00;;;;;;;;;;5052557;28;20124;-74
2022/05/29 06:40:20;;;;;;;12.07;2.88;;;;;;;;;;5052923;28;20070;-74
2022/05/29 06:42:46;;;;;;;11.63;2.50;;;;;;;;;;5054425;28;20045;-74
2022/05/29 06:45:12;;;;;;;13.63;2.70;;;;;;;;;;5082540;28;20167;-74
2022/05/29 06:47:39;;;;;;;15.68;3.22;;;;;;;;;;5070678;28;20049;-73
2022/05/29 06:50:05;;;;;;;14.45;2.60;;;;;;;;;;5054397;28;20080;-74
2022/05/29 06:52:32;;;;;;;14.45;3.15;;;;;;;;;;5072236;28;20052;-75
2022/05/29 06:55:01;;;;;;;14.65;2.70;;;;;;;;;;5075656;28;20403;-75
2022/05/29 06:57:36;;;;;;;10.48;2.72;;;;;;;;;;5070065;28;20048;-75
2022/05/29 07:08:36;;;;;;;15.48;2.92;;;;;;;;;;5056694;28;20490;-74
2022/05/29 07:11:04;;;;;;;19.73;3.03;;;;;;;;;;5070479;28;20049;-74
2022/05/29 07:13:31;;;;;;;17.75;2.88;;;;;;;;;;5057436;28;20060;-75
2022/05/29 07:15:58;;;;;;;14.75;2.38;;;;;;;;;;5055615;28;20084;-75
2022/05/29 07:18:24;;;;;;;15.23;2.60;;;;;;;;;;5059987;28;20045;-74
2022/05/29 07:20:50;;;;;;;19.02;2.75;;;;;;;;;;5054752;28;20045;-74
2022/05/29 07:23:16;;;;;;;13.63;2.63;;;;;;;;;;5062149;28;20040;-74
2022/05/29 07:25:42;;;;;;;12.73;2.35;;;;;;;;;;5068528;28;20041;-75
2022/05/29 07:28:08;;;;;;;15.48;2.50;;;;;;;;;;5057802;28;20041;-75
2022/05/29 07:30:37;;;;;;;15.43;2.80;;;;;;;;;;5070452;28;20121;-75
2022/05/29 07:33:03;;;;;;;14.20;2.42;;;;;;;;;;5059192;28;20048;-74
2022/05/29 07:35:29;;;;;;;11.10;2.47;;;;;;;;;;5061513;28;20045;-74
2022/05/29 07:37:56;;;;;;;14.38;2.55;;;;;;;;;;5060241;28;20044;-74
2022/05/29 07:40:22;;;;;;;18.83;3.13;;;;;;;;;;5074180;28;20440;-75
2022/05/29 07:45:33;;;;;;;14.82;2.85;;;;;;;;;;5074398;28;20052;-75
2022/05/29 07:48:00;;;;;;;13.68;2.55;;;;;;;;;;5054221;28;20037;-75
2022/05/29 07:50:26;;;;;;;20.23;2.97;;;;;;;;;;5087933;28;20087;-74
2022/05/29 07:52:54;;;;;;;11.25;2.20;;;;;;;;;;5058927;28;20116;-73
2022/05/29 07:55:21;;;;;;;15.57;2.63;;;;;;;;;;5058172;28;20053;-73
2022/05/29 07:57:47;;;;;;;16.42;2.53;;;;;;;;;;5071820;28;20045;-74
2022/05/29 08:00:14;;;;;;;11.63;2.90;;;;;;;;;;5059218;28;20404;-74
2022/05/29 08:02:40;;;;;;;14.60;2.83;;;;;;;;;;5073825;28;20036;-74
2022/05/29 08:05:07;;;;;;;16.33;2.33;;;;;;;;;;5078081;28;20043;-74
2022/05/29 08:07:33;;;;;;;18.75;2.83;;;;;;;;;;5074091;28;20048;-74
2022/05/29 08:09:59;;;;;;;15.18;2.47;;;;;;;;;;5070952;28;20037;-75
2022/05/29 08:12:25;;;;;;;12.70;2.22;;;;;;;;;;5073286;28;20040;-74
2022/05/29 08:14:52;;;;;;;11.30;2.05;;;;;;;;;;5054361;28;20045;-74
2022/05/29 08:17:18;;;;;;;10.63;2.03;;;;;;;;;;5083907;28;20395;-74
2022/05/29 08:19:44;;;;;;;10.63;1.90;;;;;;;;;;5067172;28;20036;-74
2022/05/29 08:22:10;;;;;;;10.60;1.90;;;;;;;;;;5071993;28;20041;-73
2022/05/29 08:33:01;;;;;;;8.10;1.30;;;;;;;;;;5073697;28;20135;-75
2022/05/29 08:35:27;;;;;;;7.70;1.35;;;;;;;;;;5071084;28;20064;-74
2022/05/29 08:37:54;;;;;;;6.10;1.15;;;;;;;;;;5072446;28;20044;-74
2022/05/29 08:40:20;;;;;;;7.03;1.52;;;;;;;;;;5071581;28;20074;-74
2022/05/29 08:42:46;;;;;;;10.13;1.67;;;;;;;;;;5065614;28;20055;-74
2022/05/29 08:45:14;;;;;;;8.48;1.48;;;;;;;;;;5069783;28;20487;-74
2022/05/29 08:47:41;;;;;;;13.35;1.80;;;;;;;;;;5072048;28;20052;-74
2022/05/29 08:50:09;;;;;;;11.50;1.83;;;;;;;;;;5071847;28;20115;-74
2022/05/29 08:52:54;;;;;;;10.90;1.90;;;;;;;;;;5067485;28;20055;-75
2022/05/29 08:55:43;;;;;;;9.25;1.73;;;;;;;;;;5052954;28;20475;-74
2022/05/29 08:58:14;;;;;;;9.93;1.75;;;;;;;;;;5068999;28;20429;-75
2022/05/29 09:00:59;;;;;;;10.70;1.83;;;;;;;;;;5060638;28;20410;-75
2022/05/29 09:03:37;;;;;;;9.57;1.70;;;;;;;;;;5053770;28;20080;-75
2022/05/29 09:06:10;;;;;;;8.70;1.60;;;;;;;;;;5070592;28;20048;-75
2022/05/29 09:08:42;;;;;;;11.90;1.70;;;;;;;;;;5067809;28;20044;-75
2022/05/29 09:11:27;;;;;;;10.63;1.80;;;;;;;;;;5072283;28;20064;-73
2022/05/29 09:13:55;;;;;;;7.70;1.15;;;;;;;;;;5070381;28;20414;-74
2022/05/29 09:16:23;;;;;;;10.20;1.25;;;;;;;;;;5068700;28;20044;-74
2022/05/29 09:19:13;;;;;;;6.72;1.00;;;;;;;;;;5068485;28;20079;-74
2022/05/29 09:21:52;;;;;;;7.35;1.38;;;;;;;;;;5068146;28;20079;-75
2022/05/29 09:24:27;;;;;;;6.15;1.10;;;;;;;;;;5070918;28;20513;-75
2022/05/29 09:26:53;;;;;;;7.95;1.40;;;;;;;;;;5070661;28;20037;-75
2022/05/29 09:29:19;;;;;;;10.25;1.40;;;;;;;;;;5066232;28;20506;-75
2022/05/29 09:31:46;;;;;;;10.10;1.80;;;;;;;;;;5072298;28;20044;-75
2022/05/29 09:34:12;;;;;;;8.65;1.27;;;;;;;;;;5065065;28;20068;-75
2022/05/29 09:36:55;;;;;;;7.40;1.20;;;;;;;;;;5063915;28;20040;-75
2022/05/29 09:39:28;;;;;;;8.75;1.52;;;;;;;;;;5068396;28;20052;-75
2022/05/29 09:42:05;;;;;;;11.93;1.63;;;;;;;;;;5069643;28;20045;-75
2022/05/29 09:44:31;;;;;;;8.13;1.60;;;;;;;;;;5072572;28;20047;-75
2022/05/29 09:49:40;;;;;;;10.15;1.67;;;;;;;;;;5073046;28;20102;-74
2022/05/29 09:49:49;;;;;;;8.85;2.13;;;;;;;;;;5075499;28;20059;-75
2022/05/29 09:52:20;;;;;;;8.93;1.40;;;;;;;;;;5074836;28;20057;-74
2022/05/29 09:54:55;;;;;;;12.07;1.85;;;;;;;;;;5056910;28;20579;-75
2022/05/29 09:57:22;;;;;;;8.93;1.50;;;;;;;;;;5072686;28;20076;-74
2022/05/29 09:59:51;;;;;;;9.75;1.50;;;;;;;;;;5072627;28;20037;-74
2022/05/29 10:02:25;;;;;;;9.60;1.60;;;;;;;;;;5053385;28;20487;-74
2022/05/29 10:04:51;;;;;;;8.10;1.40;;;;;;;;;;5087846;28;20101;-74
2022/05/29 10:07:19;;;;;;;10.07;1.42;;;;;;;;;;5092874;28;20055;-75
2022/05/29 10:10:04;;;;;;;8.60;1.48;;;;;;;;;;5062624;28;20053;-74
2022/05/29 10:12:37;;;;;;;9.15;1.25;;;;;;;;;;5060393;28;20075;-74
2022/05/29 10:15:04;;;;;;;10.13;1.15;;;;;;;;;;5072220;28;20045;-75
2022/05/29 10:17:30;;;;;;;6.13;0.95;;;;;;;;;;5058604;28;20398;-74
2022/05/29 10:19:56;;;;;;;7.60;1.33;;;;;;;;;;5075256;28;20040;-74
2022/05/29 10:22:25;;;;;;;7.50;1.30;;;;;;;;;;5073939;28;20040;-74
2022/05/29 10:24:51;;;;;;;8.05;1.10;;;;;;;;;;5056163;28;20045;-74
2022/05/29 10:27:36;;;;;;;7.97;2.17;;;;;;;;;;5056469;28;20480;-75
2022/05/29 10:30:07;;;;;;;6.38;1.27;;;;;;;;;;5076124;28;20041;-75
2022/05/29 10:32:35;;;;;;;10.63;1.50;;;;;;;;;;5071268;28;20384;-75
2022/05/29 10:35:12;;;;;;;8.07;1.73;;;;;;;;;;5056117;28;20117;-75
2022/05/29 10:37:40;;;;;;;7.57;1.20;;;;;;;;;;5056235;28;20095;-75
2022/05/29 10:40:15;;;;;;;7.63;1.20;;;;;;;;;;5055793;28;20049;-74
2022/05/29 10:42:44;;;;;;;9.52;1.50;;;;;;;;;;5055425;28;20048;-74
2022/05/29 10:45:31;;;;;;;6.40;1.30;;;;;;;;;;5055869;28;20053;-74
2022/05/29 10:48:06;;;;;;;7.88;1.35;;;;;;;;;;5072077;28;20135;-74
2022/05/29 10:50:35;;;;;;;8.35;1.45;;;;;;;;;;5075652;28;20425;-74
2022/05/29 10:53:20;;;;;;;9.82;1.80;;;;;;;;;;5075793;28;20134;-75
2022/05/29 10:56:00;;;;;;;7.57;1.55;;;;;;;;;;5075472;28;20113;-75
2022/05/29 10:58:35;;;;;;;10.35;2.05;;;;;;;;;;5074656;28;20135;-75
2022/05/29 11:04:05;;;;;;;7.75;1.60;;;;;;;;;;5073585;28;20052;-75
2022/05/29 11:06:37;;;;;;;8.43;1.80;;;;;;;;;;5072732;28;20053;-75
2022/05/29 11:09:06;;;;;;;7.07;1.50;;;;;;;;;;5055270;28;20048;-75
2022/05/29 11:11:38;;;;;;;6.55;1.40;;;;;;;;;;5059009;28;20044;-75
2022/05/29 11:14:19;;;;;;;6.75;1.40;;;;;;;;;;5071976;28;20083;-75
2022/05/29 11:17:04;;;;;;;7.47;1.60;;;;;;;;;;5073299;28;20114;-75
2022/05/29 11:19:47;;;;;;;8.23;2.03;;;;;;;;;;5061677;28;20061;-74
2022/05/29 11:22:19;;;;;;;8.05;2.67;;;;;;;;;;5053740;28;20049;-75
2022/05/29 11:25:06;;;;;;;8.63;1.80;;;;;;;;;;5061709;28;20054;-75
2022/05/29 11:27:32;;;;;;;8.02;1.75;;;;;;;;;;5072889;28;21505;-75
2022/05/29 11:30:05;;;;;;;9.93;2.10;;;;;;;;;;5062965;28;20052;-75
2022/05/29 11:32:36;;;;;;;9.38;1.83;;;;;;;;;;5070612;28;20127;-75
2022/05/29 11:35:27;;;;;;;8.15;1.58;;;;;;;;;;5068383;28;20040;-75
2022/05/29 11:38:02;;;;;;;11.77;2.13;;;;;;;;;;5070842;28;20064;-75
2022/05/29 11:40:54;;;;;;;8.18;1.60;;;;;;;;;;5073554;28;20193;-75
2022/05/29 11:43:39;;;;;;;11.35;2.15;;;;;;;;;;5066463;28;20045;-74
2022/05/29 11:51:43;;;;;;;12.60;1.90;;;;;;;;;;5074026;28;20402;-75
2022/05/29 11:54:12;;;;;;;10.55;2.33;;;;;;;;;;5073199;28;20071;-75
2022/05/29 11:56:40;;;;;;;10.23;2.17;;;;;;;;;;5067375;28;20080;-74
2022/05/29 11:59:18;;;;;;;10.75;2.03;;;;;;;;;;5062376;28;20039;-75
2022/05/29 12:02:00;;;;;;;8.32;1.40;;;;;;;;;;5067495;28;20520;-75
2022/05/29 12:04:36;;;;;;;6.63;1.50;;;;;;;;;;5069679;28;20497;-75
2022/05/29 12:07:16;;;;;;;7.78;1.88;;;;;;;;;;5086041;28;20045;-75
2022/05/29 12:09:48;;;;;;;11.35;2.35;;;;;;;;;;5074219;28;20080;-75
2022/05/29 12:12:16;;;;;;;8.70;1.63;;;;;;;;;;5073054;28;20063;-75
2022/05/29 12:14:45;;;;;;;8.20;1.80;;;;;;;;;;5073291;28;20075;-75
2022/05/29 12:17:11;;;;;;;9.70;2.10;;;;;;;;;;5063954;28;20375;-74
2022/05/29 12:19:48;;;;;;;10.82;2.30;;;;;;;;;;5064313;28;20060;-75
2022/05/29 12:22:15;;;;;;;7.80;1.80;;;;;;;;;;5069516;28;20048;-75
2022/05/29 12:24:44;;;;;;;8.30;1.33;;;;;;;;;;5073991;28;20044;-74
2022/05/29 12:27:23;;;;;;;7.97;1.85;;;;;;;;;;5073424;28;20190;-75
2022/05/29 12:29:57;;;;;;;11.48;1.80;;;;;;;;;;5073745;28;20043;-75
2022/05/29 12:32:25;;;;;;;9.55;1.88;;;;;;;;;;5062581;28;20037;-75
2022/05/29 12:34:55;;;;;;;6.40;1.60;;;;;;;;;;5055101;28;20052;-75
2022/05/29 12:37:38;;;;;;;12.60;1.95;;;;;;;;;;5053380;28;20403;-74
2022/05/29 12:40:22;;;;;;;7.43;1.77;;;;;;;;;;5071895;28;20978;-75
2022/05/29 12:43:06;;;;;;;8.77;1.98;;;;;;;;;;5071815;28;20055;-75
2022/05/29 12:45:38;;;;;;;8.20;1.90;;;;;;;;;;5060522;28;20060;-74
2022/05/29 12:48:18;;;;;;;10.27;1.88;;;;;;;;;;5072935;28;20041;-74
2022/05/29 12:50:47;;;;;;;10.32;1.75;;;;;;;;;;5072665;28;20040;-75
2022/05/29 12:53:39;;;;;;;7.03;1.90;;;;;;;;;;5073368;28;20098;-75
2022/05/29 12:56:14;;;;;;;10.73;1.60;;;;;;;;;;5059375;28;20058;-75
2022/05/29 12:59:09;;;;;;;6.05;1.40;;;;;;;;;;5052209;28;20053;-75
2022/05/29 13:01:48;;;;;;;10.65;1.70;;;;;;;;;;5059079;28;20055;-75
2022/05/29 13:04:20;;;;;;;13.70;2.20;;;;;;;;;;5070722;28;20491;-74
2022/05/29 13:07:05;;;;;;;10.60;1.90;;;;;;;;;;5057395;28;20055;-74
2022/05/29 13:09:54;;;;;;;9.30;1.65;;;;;;;;;;5056744;28;20036;-74
2022/05/29 13:12:25;;;;;;;9.35;1.67;;;;;;;;;;5063400;28;20048;-74
2022/05/29 13:14:53;;;;;;;9.18;1.63;;;;;;;;;;5072926;28;20402;-74
2022/05/29 13:17:25;;;;;;;8.43;2.00;;;;;;;;;;5070950;28;20445;-75
2022/05/29 13:19:51;;;;;;;;;;;;;;;;;;5073190;28;20406;-74
2022/05/29 13:22:17;;;;;;;13.32;2.30;;;;;;;;;;5073780;28;20355;-74
2022/05/29 13:24:45;;;;;;;10.85;2.58;;;;;;;;;;5071233;28;20075;-74
2022/05/29 13:27:17;;;;;;;10.90;1.88;;;;;;;;;;5071242;28;20116;-75
2022/05/29 13:29:54;;;;;;;12.02;1.77;;;;;;;;;;5072789;28;20045;-74
2022/05/29 13:32:20;;;;;;;9.52;1.60;;;;;;;;;;5071453;28;20060;-74
2022/05/29 13:34:48;;;;;;;9.05;1.33;;;;;;;;;;5072785;28;20159;-74
2022/05/29 13:37:22;;;;;;;11.43;1.65;;;;;;;;;;5072493;28;20045;-74
2022/05/29 13:40:06;;;;;;;10.23;1.60;;;;;;;;;;5072946;28;20086;-74
2022/05/29 13:42:37;;;;;;;8.40;1.70;;;;;;;;;;5072185;28;20052;-73
2022/05/29 13:45:21;;;;;;;7.68;1.45;;;;;;;;;;5072969;28;20048;-74
2022/05/29 13:47:49;;;;;;;8.57;1.60;;;;;;;;;;5072186;28;20032;-74
2022/05/29 13:50:19;;;;;;;10.80;1.73;;;;;;;;;;5071448;28;21133;-74
2022/05/29 13:52:57;;;;;;;6.97;1.13;;;;;;;;;;5072592;28;20080;-74
2022/05/29 13:55:25;;;;;;;8.63;1.45;;;;;;;;;;5071368;28;20045;-74
2022/05/29 14:03:58;;;;;;;9.88;1.50;;;;;;;;;;5056426;28;20048;-74
2022/05/29 14:06:36;;;;;;;8.27;1.45;;;;;;;;;;5070593;28;20102;-74
2022/05/29 14:09:14;;;;;;;11.15;1.40;;;;;;;;;;5072622;28;20052;-74
2022/05/29 14:11:59;;;;;;;13.90;1.75;;;;;;;;;;5071442;28;20044;-74
2022/05/29 14:14:34;;;;;;;8.48;1.30;;;;;;;;;;5072399;28;20041;-74
2022/05/29 14:17:09;;;;;;;9.30;1.50;;;;;;;;;;5072183;28;20128;-75
2022/05/29 14:19:46;;;;;;;10.75;1.80;;;;;;;;;;5067207;28;20049;-74
2022/05/29 14:22:22;;;;;;;12.18;2.30;;;;;;;;;;5051116;28;20041;-74
2022/05/29 14:24:54;;;;;;;10.30;1.77;;;;;;;;;;5063922;28;20048;-74
2022/05/29 14:27:20;;;;;;;13.48;2.20;;;;;;;;;;5070547;28;20491;-74
2022/05/29 14:29:59;;;;;;;9.38;1.55;;;;;;;;;;5070397;28;20119;-74
2022/05/29 14:32:44;;;;;;;11.32;1.95;;;;;;;;;;5067708;28;20049;-74
2022/05/29 14:35:15;;;;;;;7.30;1.48;;;;;;;;;;5072205;28;20040;-74
2022/05/29 14:37:44;;;;;;;;;;;;;;;;;;5072597;28;20422;-74
2022/05/29 14:40:23;;;;;;;11.85;2.10;;;;;;;;;;5067916;28;19921;-74
2022/05/29 14:42:53;;;;;;;9.38;1.98;;;;;;;;;;5051847;28;20048;-74
2022/05/29 14:45:21;;;;;;;9.77;2.05;;;;;;;;;;5064929;28;20048;-74
2022/05/29 14:47:55;;;;;;;9.88;1.92;;;;;;;;;;5052819;28;20045;-74
2022/05/29 14:50:29;;;;;;;7.97;1.48;;;;;;;;;;5058660;28;20046;-73
2022/05/29 14:53:17;;;;;;;12.00;1.90;;;;;;;;;;5066404;28;20045;-74
2022/05/29 14:55:46;;;;;;;8.32;1.55;;;;;;;;;;5063587;28;20083;-74
2022/05/29 14:58:14;;;;;;;9.13;1.77;;;;;;;;;;5070609;28;20041;-74
2022/05/29 15:00:41;;;;;;;7.20;1.55;;;;;;;;;;5068576;28;20063;-74
2022/05/29 15:03:12;;;;;;;8.20;1.45;;;;;;;;;;5062112;28;20140;-74
2022/05/29 15:05:40;;;;;;;11.07;1.77;;;;;;;;;;5054896;28;20402;-73
2022/05/29 15:10:57;;;;;;;11.38;2.13;;;;;;;;;;5058923;28;20057;-75
2022/05/29 15:13:22;;;;;;;;;;;;;;;;;;5062821;28;20053;-74
2022/05/29 15:15:54;;;;;;;9.63;1.70;;;;;;;;;;5055142;28;19928;-75
2022/05/29 15:18:20;;;;;;;;;;;;;;;;;;5062114;28;20522;-74
2022/05/29 15:26:18;;;;;;;13.05;2.10;;;;;;;;;;5074338;28;20052;-75
2022/05/29 15:28:46;;;;;;;16.52;2.88;;;;;;;;;;5075163;28;20044;-74
2022/05/29 15:31:14;;;;;;;17.23;4.82;;;;;;;;;;5074536;28;20415;-75
2022/05/29 15:33:55;;;;;;;15.05;4.20;;;;;;;;;;5075166;28;20098;-75
2022/05/29 15:36:26;;;;;;;12.98;2.80;;;;;;;;;;5073908;28;20040;-74
2022/05/29 15:38:59;;;;;;;11.60;3.00;;;;;;;;;;5077747;28;20051;-74
2022/05/29 15:41:25;;;;;;;14.27;3.05;;;;;;;;;;5075540;28;20083;-75
2022/05/29 15:43:52;;;;;;;13.15;3.50;;;;;;;;;;5072108;28;20148;-74
2022/05/29 15:46:24;;;;;;;14.65;3.20;;;;;;;;;;5074629;28;20044;-74